Terminal Aerodrome Forecast
Issued by NWS

Home | Current Version | Previous Version | Text Only | Print | Product List | Glossary On
Versions: 1 2 3 4 5 6 7 8 9 10 11 12 13 14 15 16 17 18 19 20 21 22 23 24 25 26 27 28 29 30 31 32
000
FTUS46 KEKA 030532
TAFCEC
TAF
KCEC 030532Z 0306/0406 35015KT P6SM SKC
     FM030800 35010KT 6SM BR SKC
     FM031100 35006KT 3SM BR BKN005
     FM031600 34014KT 5SM BR SCT005
     FM031800 34016G24KT P6SM SKC
     FM032100 34020G28KT P6SM SKC
     FM040400 35016KT P6SM SKC=

USA.gov is the U.S. government's official web portal to all federal, state and local government web resources and services.